D/T METAR WX W/DIR W/SPE G/SPE TEMP DEWP
23/05/19 13:50 EGGD 231250Z AUTO 24007KT 200V290 9999 FEW045 20/07 Q1016 WSW (240°) 8.1mph 20°C 7°C
23/05/19 13:20 EGGD 231220Z AUTO 24005KT 180V350 9999 FEW045 19/07 Q1016 WSW (240°) 5.8mph 19°C 7°C
23/05/19 12:50 EGGD 231150Z AUTO 22006KT 170V280 9999 FEW044 18/07 Q1016 SW (220°) 6.9mph 18°C 7°C
23/05/19 12:20 EGGD 231120Z AUTO 20006KT 150V280 9999 FEW043 19/07 Q1016 SSW (200°) 6.9mph 19°C 7°C
23/05/19 11:50 EGGD 231050Z AUTO 18004KT 100V260 9999 NCD 18/07 Q1016 S (180°) 4.6mph 18°C 7°C
23/05/19 11:20 EGGD 231020Z AUTO 20005KT 130V280 9999 NCD 17/07 Q1017 SSW (200°) 5.8mph 17°C 7°C
23/05/19 10:50 EGGD 230950Z AUTO 21005KT 150V250 9999 NCD 17/06 Q1017 SSW (210°) 5.8mph 17°C 6°C
23/05/19 10:20 EGGD 230920Z AUTO VRB03KT 9999 NCD 16/06 Q1017 N (0°) 3.5mph 16°C 6°C
23/05/19 09:50 EGGD 230850Z AUTO VRB03KT 9999 NCD 16/06 Q1017 N (0°) 3.5mph 16°C 6°C
23/05/19 09:20 EGGD 230820Z AUTO VRB03KT 9999 NCD 15/06 Q1017 N (0°) 3.5mph 15°C 6°C
23/05/19 08:50 EGGD 230750Z AUTO VRB03KT 9999 NCD 15/07 Q1017 N (0°) 3.5mph 15°C 7°C
23/05/19 08:20 EGGD 230720Z AUTO VRB02KT 9999 NCD 14/06 Q1017 N (0°) 2.3mph 14°C 6°C
23/05/19 07:50 EGGD 230650Z AUTO VRB02KT 9999 FEW045 12/08 Q1017 N (0°) 2.3mph 12°C 8°C
23/05/19 07:20 EGGD 230620Z AUTO VRB03KT 9999 NCD 12/08 Q1017 N (0°) 3.5mph 12°C 8°C
23/05/19 06:50 EGGD 230550Z AUTO 29004KT 9999 NCD 10/06 Q1017 WNW (290°) 4.6mph 10°C 6°C
23/05/19 06:20 EGGD 230520Z AUTO 26004KT 9999 FEW041 09/04 Q1017 W (260°) 4.6mph 9°C 4°C
23/05/19 05:50 EGGD 230450Z AUTO 25004KT 9999 NCD 10/03 Q1017 WSW (250°) 4.6mph 10°C 3°C
23/05/19 05:20 EGGD 230420Z AUTO 25004KT 9999 NCD 10/03 Q1017 WSW (250°) 4.6mph 10°C 3°C
23/05/19 04:50 EGGD 230350Z AUTO 24004KT 9999 NCD 11/03 Q1017 WSW (240°) 4.6mph 11°C 3°C
23/05/19 04:20 EGGD 230320Z AUTO 24004KT 9999 NCD 11/02 Q1017 WSW (240°) 4.6mph 11°C 2°C
23/05/19 03:50 EGGD 230250Z AUTO 24005KT 9999 NCD 11/03 Q1017 WSW (240°) 5.8mph 11°C 3°C
23/05/19 03:20 EGGD 230220Z AUTO 24004KT 9999 NCD 10/03 Q1017 WSW (240°) 4.6mph 10°C 3°C
23/05/19 02:50 EGGD 230150Z AUTO 22004KT 9999 NCD 11/04 Q1018 SW (220°) 4.6mph 11°C 4°C
23/05/19 02:20 EGGD 230120Z AUTO 23004KT 9999 NCD 10/04 Q1018 SW (230°) 4.6mph 10°C 4°C
23/05/19 01:50 EGGD 230050Z AUTO 23004KT 9999 NCD 10/05 Q1018 SW (230°) 4.6mph 10°C 5°C
23/05/19 01:20 EGGD 230020Z AUTO 24004KT 9999 NCD 10/05 Q1018 WSW (240°) 4.6mph 10°C 5°C
23/05/19 00:50 EGGD 222350Z AUTO 24005KT 9999 NCD 11/05 Q1018 WSW (240°) 5.8mph 11°C 5°C
23/05/19 00:20 EGGD 222320Z AUTO 23006KT 9999 NCD 11/05 Q1018 SW (230°) 6.9mph 11°C 5°C
22/05/19 23:50 EGGD 222250Z AUTO 23004KT 9999 NCD 11/06 Q1018 SW (230°) 4.6mph 11°C 6°C
22/05/19 23:20 EGGD 222220Z AUTO 22004KT 9999 NCD 11/06 Q1019 SW (220°) 4.6mph 11°C 6°C
22/05/19 22:50 EGGD 222150Z AUTO 22004KT 9999 NCD 12/05 Q1019 SW (220°) 4.6mph 12°C 5°C
22/05/19 22:20 EGGD 222120Z AUTO 23005KT 9999 NCD 12/06 Q1019 SW (230°) 5.8mph 12°C 6°C
22/05/19 21:50 EGGD 222050Z AUTO 23005KT 9999 NCD 13/05 Q1019 SW (230°) 5.8mph 13°C 5°C
22/05/19 21:20 EGGD 222020Z AUTO 24005KT 9999 NCD 13/06 Q1018 WSW (240°) 5.8mph 13°C 6°C
22/05/19 20:50 EGGD 221950Z AUTO 24006KT 9999 NCD 13/07 Q1018 WSW (240°) 6.9mph 13°C 7°C
22/05/19 20:20 EGGD 221920Z AUTO 24006KT 9999 NCD 14/07 Q1018 WSW (240°) 6.9mph 14°C 7°C
22/05/19 19:50 EGGD 221850Z AUTO 24006KT 9999 NCD 16/08 Q1018 WSW (240°) 6.9mph 16°C 8°C
22/05/19 19:20 EGGD 221820Z AUTO 25007KT 9999 NCD 17/08 Q1018 WSW (250°) 8.1mph 17°C 8°C
22/05/19 18:50 EGGD 221750Z AUTO 27008KT 9999 NCD 17/08 Q1018 W (270°) 9.2mph 17°C 8°C
22/05/19 18:20 EGGD 221720Z AUTO 26007KT 9999 NCD 18/08 Q1018 W (260°) 8.1mph 18°C 8°C
22/05/19 17:50 EGGD 221650Z AUTO 27007KT 240V300 9999 FEW046 18/08 Q1018 W (270°) 8.1mph 18°C 8°C
22/05/19 17:20 EGGD 221620Z AUTO 27006KT 230V320 9999 NCD 18/08 Q1018 W (270°) 6.9mph 18°C 8°C
22/05/19 16:50 EGGD 221550Z AUTO 30008KT 260V330 9999 NCD 19/08 Q1019 WNW (300°) 9.2mph 19°C 8°C
22/05/19 16:20 EGGD 221520Z AUTO 28009KT 9999 BKN048 19/08 Q1019 W (280°) 10.4mph 19°C 8°C
22/05/19 15:50 EGGD 221450Z AUTO VRB05KT 9999 BKN048 19/08 Q1019 N (0°) 5.8mph 19°C 8°C
22/05/19 15:20 EGGD 221420Z AUTO VRB03KT 9999 BKN049 19/07 Q1019 N (0°) 3.5mph 19°C 7°C
22/05/19 14:50 EGGD 221350Z AUTO 25006KT 190V300 9999 NCD 19/06 Q1019 WSW (250°) 6.9mph 19°C 6°C
22/05/19 14:20 EGGD 221320Z AUTO 25005KT 190V330 9999 NCD 18/05 Q1020 WSW (250°) 5.8mph 18°C 5°C